sensor_id;sensor_type;location;lat;lon;timestamp;P1;durP1;ratioP1;P2;durP2;ratioP2
37527;SDS011;23372;52.050;4.810;2023-05-10T00:00:12;54.05;;;24.80;;
37527;SDS011;23372;52.050;4.810;2023-05-10T00:02:38;46.88;;;24.65;;
37527;SDS011;23372;52.050;4.810;2023-05-10T00:05:05;49.42;;;24.00;;
37527;SDS011;23372;52.050;4.810;2023-05-10T00:07:31;47.40;;;24.50;;
37527;SDS011;23372;52.050;4.810;2023-05-10T00:09:57;48.53;;;24.67;;
37527;SDS011;23372;52.050;4.810;2023-05-10T00:12:23;42.40;;;24.37;;
37527;SDS011;23372;52.050;4.810;2023-05-10T00:14:48;47.42;;;24.48;;
37527;SDS011;23372;52.050;4.810;2023-05-10T00:17:14;42.97;;;25.15;;
37527;SDS011;23372;52.050;4.810;2023-05-10T00:19:39;45.63;;;24.58;;
37527;SDS011;23372;52.050;4.810;2023-05-10T00:22:05;49.20;;;23.80;;
37527;SDS011;23372;52.050;4.810;2023-05-10T00:24:31;46.22;;;22.40;;
37527;SDS011;23372;52.050;4.810;2023-05-10T00:26:56;44.05;;;23.27;;
37527;SDS011;23372;52.050;4.810;2023-05-10T00:29:22;38.85;;;22.05;;
37527;SDS011;23372;52.050;4.810;2023-05-10T00:31:47;45.15;;;23.95;;
37527;SDS011;23372;52.050;4.810;2023-05-10T00:34:13;42.03;;;22.27;;
37527;SDS011;23372;52.050;4.810;2023-05-10T00:36:39;40.83;;;22.02;;
37527;SDS011;23372;52.050;4.810;2023-05-10T00:39:04;44.63;;;22.23;;
37527;SDS011;23372;52.050;4.810;2023-05-10T00:41:30;47.93;;;23.00;;
37527;SDS011;23372;52.050;4.810;2023-05-10T00:43:58;62.03;;;26.20;;
37527;SDS011;23372;52.050;4.810;2023-05-10T00:46:24;61.83;;;25.23;;
37527;SDS011;23372;52.050;4.810;2023-05-10T00:48:50;47.85;;;22.60;;
37527;SDS011;23372;52.050;4.810;2023-05-10T00:51:16;51.75;;;24.38;;
37527;SDS011;23372;52.050;4.810;2023-05-10T00:53:43;55.38;;;25.80;;
37527;SDS011;23372;52.050;4.810;2023-05-10T00:56:10;57.42;;;26.33;;
37527;SDS011;23372;52.050;4.810;2023-05-10T00:58:36;53.72;;;26.58;;
37527;SDS011;23372;52.050;4.810;2023-05-10T01:01:01;59.07;;;25.20;;
37527;SDS011;23372;52.050;4.810;2023-05-10T01:03:27;54.28;;;25.42;;
37527;SDS011;23372;52.050;4.810;2023-05-10T01:05:53;57.20;;;25.98;;
37527;SDS011;23372;52.050;4.810;2023-05-10T01:08:20;59.53;;;27.80;;
37527;SDS011;23372;52.050;4.810;2023-05-10T01:10:46;57.50;;;27.60;;
37527;SDS011;23372;52.050;4.810;2023-05-10T01:13:14;54.60;;;25.05;;
37527;SDS011;23372;52.050;4.810;2023-05-10T01:16:03;54.20;;;25.25;;
37527;SDS011;23372;52.050;4.810;2023-05-10T01:18:30;55.10;;;25.83;;
37527;SDS011;23372;52.050;4.810;2023-05-10T01:24:12;51.10;;;24.30;;
37527;SDS011;23372;52.050;4.810;2023-05-10T01:30:08;58.88;;;28.08;;
37527;SDS011;23372;52.050;4.810;2023-05-10T01:32:56;62.03;;;30.65;;
37527;SDS011;23372;52.050;4.810;2023-05-10T01:46:43;86.13;;;37.25;;
37527;SDS011;23372;52.050;4.810;2023-05-10T01:49:18;78.33;;;36.57;;
37527;SDS011;23372;52.050;4.810;2023-05-10T01:51:50;82.43;;;37.37;;
37527;SDS011;23372;52.050;4.810;2023-05-10T01:54:19;76.15;;;35.00;;
37527;SDS011;23372;52.050;4.810;2023-05-10T01:56:50;84.87;;;37.43;;
37527;SDS011;23372;52.050;4.810;2023-05-10T01:59:21;86.65;;;38.00;;
37527;SDS011;23372;52.050;4.810;2023-05-10T02:01:47;83.88;;;37.47;;
37527;SDS011;23372;52.050;4.810;2023-05-10T02:04:15;85.15;;;35.90;;
37527;SDS011;23372;52.050;4.810;2023-05-10T02:06:42;77.45;;;34.72;;
37527;SDS011;23372;52.050;4.810;2023-05-10T02:09:10;70.38;;;34.05;;
37527;SDS011;23372;52.050;4.810;2023-05-10T02:11:39;68.50;;;30.85;;
37527;SDS011;23372;52.050;4.810;2023-05-10T02:14:07;63.83;;;30.83;;
37527;SDS011;23372;52.050;4.810;2023-05-10T02:16:36;72.57;;;32.17;;
37527;SDS011;23372;52.050;4.810;2023-05-10T02:19:03;70.88;;;29.00;;
37527;SDS011;23372;52.050;4.810;2023-05-10T02:21:31;65.70;;;29.52;;
37527;SDS011;23372;52.050;4.810;2023-05-10T02:23:57;62.33;;;27.93;;
37527;SDS011;23372;52.050;4.810;2023-05-10T02:26:25;71.07;;;29.85;;
37527;SDS011;23372;52.050;4.810;2023-05-10T02:28:51;72.23;;;31.57;;
37527;SDS011;23372;52.050;4.810;2023-05-10T02:31:19;76.10;;;32.28;;
37527;SDS011;23372;52.050;4.810;2023-05-10T02:33:46;65.30;;;30.42;;
37527;SDS011;23372;52.050;4.810;2023-05-10T02:36:13;74.95;;;31.90;;
37527;SDS011;23372;52.050;4.810;2023-05-10T02:38:41;71.83;;;31.97;;
37527;SDS011;23372;52.050;4.810;2023-05-10T02:41:08;79.32;;;32.63;;
37527;SDS011;23372;52.050;4.810;2023-05-10T02:43:35;70.55;;;30.90;;
37527;SDS011;23372;52.050;4.810;2023-05-10T02:46:02;68.87;;;31.63;;
37527;SDS011;23372;52.050;4.810;2023-05-10T02:48:28;74.07;;;33.25;;
37527;SDS011;23372;52.050;4.810;2023-05-10T02:50:54;78.07;;;35.08;;
37527;SDS011;23372;52.050;4.810;2023-05-10T02:53:30;83.78;;;37.90;;
37527;SDS011;23372;52.050;4.810;2023-05-10T02:55:57;73.38;;;38.22;;
37527;SDS011;23372;52.050;4.810;2023-05-10T02:58:25;77.15;;;35.22;;
37527;SDS011;23372;52.050;4.810;2023-05-10T03:00:51;79.37;;;36.87;;
37527;SDS011;23372;52.050;4.810;2023-05-10T03:03:17;74.90;;;38.23;;
37527;SDS011;23372;52.050;4.810;2023-05-10T03:05:42;84.37;;;38.80;;
37527;SDS011;23372;52.050;4.810;2023-05-10T03:08:08;88.25;;;39.13;;
37527;SDS011;23372;52.050;4.810;2023-05-10T03:10:36;77.97;;;37.33;;
37527;SDS011;23372;52.050;4.810;2023-05-10T03:13:22;83.03;;;38.70;;
37527;SDS011;23372;52.050;4.810;2023-05-10T03:16:35;80.10;;;38.17;;
37527;SDS011;23372;52.050;4.810;2023-05-10T03:18:54;71.55;;;36.95;;
37527;SDS011;23372;52.050;4.810;2023-05-10T03:21:27;76.68;;;39.85;;
37527;SDS011;23372;52.050;4.810;2023-05-10T03:24:28;82.88;;;39.47;;
37527;SDS011;23372;52.050;4.810;2023-05-10T03:26:48;79.78;;;39.03;;
37527;SDS011;23372;52.050;4.810;2023-05-10T03:29:15;75.07;;;38.47;;
37527;SDS011;23372;52.050;4.810;2023-05-10T03:31:42;79.90;;;39.40;;
37527;SDS011;23372;52.050;4.810;2023-05-10T03:34:07;66.67;;;33.53;;
37527;SDS011;23372;52.050;4.810;2023-05-10T03:36:33;69.43;;;34.58;;
37527;SDS011;23372;52.050;4.810;2023-05-10T03:38:59;77.73;;;37.63;;
37527;SDS011;23372;52.050;4.810;2023-05-10T03:41:25;77.78;;;37.60;;
37527;SDS011;23372;52.050;4.810;2023-05-10T03:43:51;79.60;;;40.50;;
37527;SDS011;23372;52.050;4.810;2023-05-10T03:46:16;73.20;;;42.15;;
37527;SDS011;23372;52.050;4.810;2023-05-10T03:48:42;79.32;;;44.42;;
37527;SDS011;23372;52.050;4.810;2023-05-10T03:51:08;78.43;;;42.93;;
37527;SDS011;23372;52.050;4.810;2023-05-10T03:53:33;72.88;;;41.95;;
37527;SDS011;23372;52.050;4.810;2023-05-10T03:55:59;64.00;;;35.72;;
37527;SDS011;23372;52.050;4.810;2023-05-10T03:58:24;72.50;;;39.78;;
37527;SDS011;23372;52.050;4.810;2023-05-10T04:00:50;65.00;;;32.55;;
37527;SDS011;23372;52.050;4.810;2023-05-10T04:03:16;69.80;;;39.13;;
37527;SDS011;23372;52.050;4.810;2023-05-10T04:05:42;79.10;;;41.17;;
37527;SDS011;23372;52.050;4.810;2023-05-10T04:08:08;75.30;;;40.87;;
37527;SDS011;23372;52.050;4.810;2023-05-10T04:10:33;69.53;;;32.33;;
37527;SDS011;23372;52.050;4.810;2023-05-10T04:12:59;73.15;;;34.65;;
37527;SDS011;23372;52.050;4.810;2023-05-10T04:15:24;52.65;;;29.80;;
37527;SDS011;23372;52.050;4.810;2023-05-10T04:17:50;62.73;;;33.53;;
37527;SDS011;23372;52.050;4.810;2023-05-10T04:20:16;77.00;;;41.20;;
37527;SDS011;23372;52.050;4.810;2023-05-10T04:22:42;57.67;;;31.80;;
37527;SDS011;23372;52.050;4.810;2023-05-10T04:25:07;59.40;;;30.67;;
37527;SDS011;23372;52.050;4.810;2023-05-10T04:27:33;64.65;;;33.08;;
37527;SDS011;23372;52.050;4.810;2023-05-10T04:29:59;74.70;;;38.60;;
37527;SDS011;23372;52.050;4.810;2023-05-10T04:32:25;77.67;;;43.77;;
37527;SDS011;23372;52.050;4.810;2023-05-10T04:34:50;70.93;;;38.27;;
37527;SDS011;23372;52.050;4.810;2023-05-10T04:37:17;66.13;;;35.60;;
37527;SDS011;23372;52.050;4.810;2023-05-10T04:39:42;68.18;;;32.95;;
37527;SDS011;23372;52.050;4.810;2023-05-10T04:42:08;65.72;;;36.63;;
37527;SDS011;23372;52.050;4.810;2023-05-10T04:44:34;73.30;;;37.83;;
37527;SDS011;23372;52.050;4.810;2023-05-10T04:47:00;71.35;;;37.83;;
37527;SDS011;23372;52.050;4.810;2023-05-10T04:49:27;66.78;;;34.80;;
37527;SDS011;23372;52.050;4.810;2023-05-10T04:51:53;63.53;;;34.17;;
37527;SDS011;23372;52.050;4.810;2023-05-10T04:54:18;67.55;;;36.25;;
37527;SDS011;23372;52.050;4.810;2023-05-10T04:56:44;64.57;;;36.40;;
37527;SDS011;23372;52.050;4.810;2023-05-10T04:59:09;72.88;;;38.80;;
37527;SDS011;23372;52.050;4.810;2023-05-10T05:01:35;70.10;;;33.92;;
37527;SDS011;23372;52.050;4.810;2023-05-10T05:04:01;69.00;;;35.53;;
37527;SDS011;23372;52.050;4.810;2023-05-10T05:06:26;65.63;;;34.25;;
37527;SDS011;23372;52.050;4.810;2023-05-10T05:08:52;65.95;;;33.35;;
37527;SDS011;23372;52.050;4.810;2023-05-10T05:11:18;65.30;;;31.13;;
37527;SDS011;23372;52.050;4.810;2023-05-10T05:13:44;59.65;;;32.50;;
37527;SDS011;23372;52.050;4.810;2023-05-10T05:16:09;68.35;;;31.95;;
37527;SDS011;23372;52.050;4.810;2023-05-10T05:18:36;67.87;;;32.30;;
37527;SDS011;23372;52.050;4.810;2023-05-10T05:21:01;72.70;;;33.45;;
37527;SDS011;23372;52.050;4.810;2023-05-10T05:23:27;64.85;;;30.98;;
37527;SDS011;23372;52.050;4.810;2023-05-10T05:25:53;67.57;;;30.85;;
37527;SDS011;23372;52.050;4.810;2023-05-10T05:28:19;64.93;;;29.05;;
37527;SDS011;23372;52.050;4.810;2023-05-10T05:30:45;63.13;;;29.67;;
37527;SDS011;23372;52.050;4.810;2023-05-10T05:33:11;58.90;;;27.33;;
37527;SDS011;23372;52.050;4.810;2023-05-10T05:35:37;58.83;;;27.15;;
37527;SDS011;23372;52.050;4.810;2023-05-10T05:38:03;55.03;;;26.25;;
37527;SDS011;23372;52.050;4.810;2023-05-10T05:40:29;57.05;;;27.30;;
37527;SDS011;23372;52.050;4.810;2023-05-10T05:42:54;65.43;;;27.85;;
37527;SDS011;23372;52.050;4.810;2023-05-10T05:45:20;51.95;;;25.25;;
37527;SDS011;23372;52.050;4.810;2023-05-10T05:47:46;59.65;;;24.85;;
37527;SDS011;23372;52.050;4.810;2023-05-10T05:50:12;47.42;;;23.48;;
37527;SDS011;23372;52.050;4.810;2023-05-10T05:52:37;51.00;;;21.63;;
37527;SDS011;23372;52.050;4.810;2023-05-10T05:55:03;40.55;;;20.38;;
37527;SDS011;23372;52.050;4.810;2023-05-10T05:57:29;43.92;;;19.25;;
37527;SDS011;23372;52.050;4.810;2023-05-10T05:59:54;50.00;;;20.15;;
37527;SDS011;23372;52.050;4.810;2023-05-10T06:02:20;44.00;;;19.40;;
37527;SDS011;23372;52.050;4.810;2023-05-10T06:04:46;49.10;;;19.42;;
37527;SDS011;23372;52.050;4.810;2023-05-10T06:07:12;48.22;;;18.77;;
37527;SDS011;23372;52.050;4.810;2023-05-10T06:09:37;45.60;;;18.38;;
37527;SDS011;23372;52.050;4.810;2023-05-10T06:12:03;42.90;;;17.13;;
37527;SDS011;23372;52.050;4.810;2023-05-10T06:14:28;41.30;;;17.10;;
37527;SDS011;23372;52.050;4.810;2023-05-10T06:16:54;45.67;;;18.33;;
37527;SDS011;23372;52.050;4.810;2023-05-10T06:19:20;47.15;;;20.95;;
37527;SDS011;23372;52.050;4.810;2023-05-10T06:21:45;36.55;;;16.60;;
37527;SDS011;23372;52.050;4.810;2023-05-10T06:24:11;29.85;;;15.13;;
37527;SDS011;23372;52.050;4.810;2023-05-10T06:26:36;29.35;;;14.98;;
37527;SDS011;23372;52.050;4.810;2023-05-10T06:29:02;31.90;;;14.98;;
37527;SDS011;23372;52.050;4.810;2023-05-10T06:31:27;33.00;;;15.40;;
37527;SDS011;23372;52.050;4.810;2023-05-10T06:33:53;29.95;;;14.73;;
37527;SDS011;23372;52.050;4.810;2023-05-10T06:36:18;24.40;;;12.43;;
37527;SDS011;23372;52.050;4.810;2023-05-10T06:38:44;22.92;;;12.02;;
37527;SDS011;23372;52.050;4.810;2023-05-10T06:41:10;22.23;;;11.48;;
37527;SDS011;23372;52.050;4.810;2023-05-10T06:43:35;22.75;;;12.13;;
37527;SDS011;23372;52.050;4.810;2023-05-10T06:46:04;23.33;;;12.23;;
37527;SDS011;23372;52.050;4.810;2023-05-10T06:48:30;23.55;;;12.90;;
37527;SDS011;23372;52.050;4.810;2023-05-10T06:50:56;20.65;;;10.48;;
37527;SDS011;23372;52.050;4.810;2023-05-10T06:53:21;24.27;;;12.43;;
37527;SDS011;23372;52.050;4.810;2023-05-10T06:55:47;24.73;;;11.98;;
37527;SDS011;23372;52.050;4.810;2023-05-10T06:58:14;25.25;;;12.65;;
37527;SDS011;23372;52.050;4.810;2023-05-10T07:00:40;20.77;;;11.15;;
37527;SDS011;23372;52.050;4.810;2023-05-10T07:03:08;17.98;;;8.70;;
37527;SDS011;23372;52.050;4.810;2023-05-10T07:05:34;18.55;;;8.38;;
37527;SDS011;23372;52.050;4.810;2023-05-10T07:08:00;13.88;;;7.72;;
37527;SDS011;23372;52.050;4.810;2023-05-10T07:10:27;15.32;;;7.90;;
37527;SDS011;23372;52.050;4.810;2023-05-10T07:12:53;18.52;;;8.27;;
37527;SDS011;23372;52.050;4.810;2023-05-10T07:15:19;16.23;;;8.93;;
37527;SDS011;23372;52.050;4.810;2023-05-10T07:17:45;16.25;;;8.10;;
37527;SDS011;23372;52.050;4.810;2023-05-10T07:20:10;14.82;;;9.65;;
37527;SDS011;23372;52.050;4.810;2023-05-10T07:22:36;16.33;;;9.50;;
37527;SDS011;23372;52.050;4.810;2023-05-10T07:25:02;13.52;;;7.78;;
37527;SDS011;23372;52.050;4.810;2023-05-10T07:27:28;13.07;;;8.10;;
37527;SDS011;23372;52.050;4.810;2023-05-10T07:29:53;12.43;;;7.47;;
37527;SDS011;23372;52.050;4.810;2023-05-10T07:32:19;14.05;;;6.90;;
37527;SDS011;23372;52.050;4.810;2023-05-10T07:34:45;9.10;;;6.68;;
37527;SDS011;23372;52.050;4.810;2023-05-10T07:37:12;12.38;;;7.30;;
37527;SDS011;23372;52.050;4.810;2023-05-10T07:39:37;10.25;;;6.30;;
37527;SDS011;23372;52.050;4.810;2023-05-10T07:42:03;8.35;;;6.30;;
37527;SDS011;23372;52.050;4.810;2023-05-10T07:44:29;11.18;;;6.13;;
37527;SDS011;23372;52.050;4.810;2023-05-10T07:46:54;9.10;;;5.80;;
37527;SDS011;23372;52.050;4.810;2023-05-10T07:49:20;10.43;;;6.53;;
37527;SDS011;23372;52.050;4.810;2023-05-10T07:51:46;9.85;;;6.40;;
37527;SDS011;23372;52.050;4.810;2023-05-10T07:54:12;13.85;;;6.72;;
37527;SDS011;23372;52.050;4.810;2023-05-10T07:56:38;10.32;;;6.05;;
37527;SDS011;23372;52.050;4.810;2023-05-10T07:59:05;9.48;;;5.82;;
37527;SDS011;23372;52.050;4.810;2023-05-10T08:01:32;12.35;;;6.18;;
37527;SDS011;23372;52.050;4.810;2023-05-10T08:03:58;11.32;;;6.13;;
37527;SDS011;23372;52.050;4.810;2023-05-10T08:06:25;10.40;;;6.32;;
37527;SDS011;23372;52.050;4.810;2023-05-10T08:08:54;9.77;;;5.63;;
37527;SDS011;23372;52.050;4.810;2023-05-10T08:11:20;9.82;;;6.07;;
37527;SDS011;23372;52.050;4.810;2023-05-10T08:13:47;8.82;;;5.38;;
37527;SDS011;23372;52.050;4.810;2023-05-10T08:16:13;10.85;;;5.53;;
37527;SDS011;23372;52.050;4.810;2023-05-10T08:18:39;9.02;;;5.68;;
37527;SDS011;23372;52.050;4.810;2023-05-10T08:21:05;8.23;;;5.32;;
37527;SDS011;23372;52.050;4.810;2023-05-10T08:23:31;9.65;;;5.53;;
37527;SDS011;23372;52.050;4.810;2023-05-10T08:25:57;7.03;;;4.47;;
37527;SDS011;23372;52.050;4.810;2023-05-10T08:28:22;8.23;;;5.10;;
37527;SDS011;23372;52.050;4.810;2023-05-10T08:30:49;8.43;;;4.90;;
37527;SDS011;23372;52.050;4.810;2023-05-10T08:33:15;10.38;;;4.78;;
37527;SDS011;23372;52.050;4.810;2023-05-10T08:35:44;8.30;;;4.88;;
37527;SDS011;23372;52.050;4.810;2023-05-10T08:38:10;11.38;;;5.10;;
37527;SDS011;23372;52.050;4.810;2023-05-10T08:40:42;7.35;;;4.88;;
37527;SDS011;23372;52.050;4.810;2023-05-10T08:43:09;7.13;;;5.05;;
37527;SDS011;23372;52.050;4.810;2023-05-10T08:45:37;9.00;;;5.80;;
37527;SDS011;23372;52.050;4.810;2023-05-10T08:48:05;9.05;;;5.30;;
37527;SDS011;23372;52.050;4.810;2023-05-10T08:50:31;7.47;;;4.70;;
37527;SDS011;23372;52.050;4.810;2023-05-10T08:53:01;7.22;;;4.82;;
37527;SDS011;23372;52.050;4.810;2023-05-10T08:55:34;10.27;;;5.32;;
37527;SDS011;23372;52.050;4.810;2023-05-10T08:58:05;7.70;;;5.05;;
37527;SDS011;23372;52.050;4.810;2023-05-10T09:00:31;7.82;;;5.28;;
37527;SDS011;23372;52.050;4.810;2023-05-10T09:02:58;8.00;;;4.28;;
37527;SDS011;23372;52.050;4.810;2023-05-10T09:05:24;8.65;;;4.63;;
37527;SDS011;23372;52.050;4.810;2023-05-10T09:07:50;6.68;;;3.78;;
37527;SDS011;23372;52.050;4.810;2023-05-10T09:10:16;9.10;;;5.15;;
37527;SDS011;23372;52.050;4.810;2023-05-10T09:12:43;7.25;;;4.53;;
37527;SDS011;23372;52.050;4.810;2023-05-10T09:15:10;12.18;;;5.38;;
37527;SDS011;23372;52.050;4.810;2023-05-10T09:17:36;8.02;;;4.95;;
37527;SDS011;23372;52.050;4.810;2023-05-10T09:20:03;8.02;;;4.78;;
37527;SDS011;23372;52.050;4.810;2023-05-10T09:22:30;8.50;;;4.43;;
37527;SDS011;23372;52.050;4.810;2023-05-10T09:25:15;10.25;;;5.38;;
37527;SDS011;23372;52.050;4.810;2023-05-10T09:27:44;8.82;;;5.25;;
37527;SDS011;23372;52.050;4.810;2023-05-10T09:30:10;10.90;;;5.47;;
37527;SDS011;23372;52.050;4.810;2023-05-10T09:32:49;8.10;;;5.35;;
37527;SDS011;23372;52.050;4.810;2023-05-10T09:35:18;8.27;;;4.65;;
37527;SDS011;23372;52.050;4.810;2023-05-10T09:37:48;7.75;;;4.35;;
37527;SDS011;23372;52.050;4.810;2023-05-10T09:40:16;9.15;;;5.07;;
37527;SDS011;23372;52.050;4.810;2023-05-10T09:45:24;9.57;;;5.70;;
37527;SDS011;23372;52.050;4.810;2023-05-10T09:47:51;7.80;;;5.40;;
37527;SDS011;23372;52.050;4.810;2023-05-10T09:50:16;11.63;;;6.03;;
37527;SDS011;23372;52.050;4.810;2023-05-10T09:52:49;10.45;;;5.85;;
37527;SDS011;23372;52.050;4.810;2023-05-10T09:55:25;14.25;;;6.60;;
37527;SDS011;23372;52.050;4.810;2023-05-10T09:58:03;10.65;;;5.70;;
37527;SDS011;23372;52.050;4.810;2023-05-10T10:00:34;11.73;;;6.35;;
37527;SDS011;23372;52.050;4.810;2023-05-10T10:03:04;10.68;;;6.18;;
37527;SDS011;23372;52.050;4.810;2023-05-10T10:05:31;10.73;;;6.68;;
37527;SDS011;23372;52.050;4.810;2023-05-10T10:07:57;10.73;;;6.65;;
37527;SDS011;23372;52.050;4.810;2023-05-10T10:10:24;12.15;;;5.95;;
37527;SDS011;23372;52.050;4.810;2023-05-10T10:12:50;9.82;;;5.45;;
37527;SDS011;23372;52.050;4.810;2023-05-10T10:15:16;8.23;;;4.50;;
37527;SDS011;23372;52.050;4.810;2023-05-10T10:17:42;6.38;;;4.35;;
37527;SDS011;23372;52.050;4.810;2023-05-10T10:20:08;8.57;;;5.05;;
37527;SDS011;23372;52.050;4.810;2023-05-10T10:22:34;6.80;;;4.40;;
37527;SDS011;23372;52.050;4.810;2023-05-10T10:25:01;5.60;;;3.60;;
37527;SDS011;23372;52.050;4.810;2023-05-10T10:27:36;8.85;;;4.22;;
37527;SDS011;23372;52.050;4.810;2023-05-10T10:30:30;4.25;;;2.72;;
37527;SDS011;23372;52.050;4.810;2023-05-10T10:35:31;4.40;;;2.72;;
37527;SDS011;23372;52.050;4.810;2023-05-10T10:37:57;9.50;;;3.97;;
37527;SDS011;23372;52.050;4.810;2023-05-10T10:42:55;5.88;;;3.95;;
37527;SDS011;23372;52.050;4.810;2023-05-10T10:45:22;7.97;;;3.83;;
37527;SDS011;23372;52.050;4.810;2023-05-10T10:50:46;7.35;;;4.22;;
37527;SDS011;23372;52.050;4.810;2023-05-10T10:53:11;7.45;;;4.47;;
37527;SDS011;23372;52.050;4.810;2023-05-10T10:55:45;8.57;;;4.57;;
37527;SDS011;23372;52.050;4.810;2023-05-10T10:58:17;9.90;;;4.32;;
37527;SDS011;23372;52.050;4.810;2023-05-10T11:01:14;9.32;;;4.03;;
37527;SDS011;23372;52.050;4.810;2023-05-10T11:06:32;9.80;;;6.30;;
37527;SDS011;23372;52.050;4.810;2023-05-10T11:09:07;10.60;;;7.72;;
37527;SDS011;23372;52.050;4.810;2023-05-10T11:11:35;9.85;;;8.57;;
37527;SDS011;23372;52.050;4.810;2023-05-10T11:14:13;11.07;;;8.50;;
37527;SDS011;23372;52.050;4.810;2023-05-10T11:16:42;11.05;;;8.55;;
37527;SDS011;23372;52.050;4.810;2023-05-10T11:19:09;9.88;;;7.75;;
37527;SDS011;23372;52.050;4.810;2023-05-10T11:24:13;11.93;;;7.32;;
37527;SDS011;23372;52.050;4.810;2023-05-10T11:26:43;10.05;;;7.00;;
37527;SDS011;23372;52.050;4.810;2023-05-10T11:29:09;12.80;;;7.40;;
37527;SDS011;23372;52.050;4.810;2023-05-10T11:31:35;12.27;;;6.65;;
37527;SDS011;23372;52.050;4.810;2023-05-10T11:34:10;11.38;;;6.97;;
37527;SDS011;23372;52.050;4.810;2023-05-10T11:36:36;12.00;;;7.10;;
37527;SDS011;23372;52.050;4.810;2023-05-10T11:39:02;12.25;;;6.82;;
37527;SDS011;23372;52.050;4.810;2023-05-10T11:41:29;14.55;;;8.20;;
37527;SDS011;23372;52.050;4.810;2023-05-10T11:43:55;14.13;;;8.52;;
37527;SDS011;23372;52.050;4.810;2023-05-10T11:46:23;19.90;;;9.75;;
37527;SDS011;23372;52.050;4.810;2023-05-10T11:48:51;17.95;;;9.98;;
37527;SDS011;23372;52.050;4.810;2023-05-10T11:51:22;19.45;;;9.45;;
37527;SDS011;23372;52.050;4.810;2023-05-10T11:53:49;18.13;;;10.13;;
37527;SDS011;23372;52.050;4.810;2023-05-10T11:56:19;22.88;;;10.48;;
37527;SDS011;23372;52.050;4.810;2023-05-10T11:58:45;23.05;;;10.80;;
37527;SDS011;23372;52.050;4.810;2023-05-10T12:01:18;18.75;;;10.05;;
37527;SDS011;23372;52.050;4.810;2023-05-10T12:03:44;23.55;;;11.75;;
37527;SDS011;23372;52.050;4.810;2023-05-10T12:06:10;23.35;;;11.43;;
37527;SDS011;23372;52.050;4.810;2023-05-10T12:08:36;21.08;;;12.07;;
37527;SDS011;23372;52.050;4.810;2023-05-10T12:11:08;18.58;;;9.98;;
37527;SDS011;23372;52.050;4.810;2023-05-10T12:13:39;20.42;;;11.52;;
37527;SDS011;23372;52.050;4.810;2023-05-10T12:16:12;16.33;;;10.57;;
37527;SDS011;23372;52.050;4.810;2023-05-10T12:18:39;20.10;;;11.60;;
37527;SDS011;23372;52.050;4.810;2023-05-10T12:21:06;16.67;;;11.57;;
37527;SDS011;23372;52.050;4.810;2023-05-10T12:23:32;19.58;;;11.02;;
37527;SDS011;23372;52.050;4.810;2023-05-10T12:26:04;18.30;;;11.30;;
37527;SDS011;23372;52.050;4.810;2023-05-10T12:28:31;14.50;;;8.95;;
37527;SDS011;23372;52.050;4.810;2023-05-10T12:30:57;15.30;;;9.65;;
37527;SDS011;23372;52.050;4.810;2023-05-10T12:33:24;16.33;;;9.88;;
37527;SDS011;23372;52.050;4.810;2023-05-10T12:35:50;17.73;;;9.82;;
37527;SDS011;23372;52.050;4.810;2023-05-10T12:38:28;18.25;;;10.02;;
37527;SDS011;23372;52.050;4.810;2023-05-10T12:41:03;19.75;;;9.25;;
37527;SDS011;23372;52.050;4.810;2023-05-10T12:43:30;17.65;;;9.68;;
37527;SDS011;23372;52.050;4.810;2023-05-10T12:45:55;16.13;;;9.85;;
37527;SDS011;23372;52.050;4.810;2023-05-10T12:48:21;17.35;;;10.35;;
37527;SDS011;23372;52.050;4.810;2023-05-10T12:50:47;15.50;;;9.10;;
37527;SDS011;23372;52.050;4.810;2023-05-10T12:53:13;13.40;;;7.68;;
37527;SDS011;23372;52.050;4.810;2023-05-10T12:55:40;11.25;;;7.40;;
37527;SDS011;23372;52.050;4.810;2023-05-10T12:58:06;11.13;;;7.68;;
37527;SDS011;23372;52.050;4.810;2023-05-10T13:00:32;13.82;;;7.95;;
37527;SDS011;23372;52.050;4.810;2023-05-10T13:02:58;15.82;;;9.30;;
37527;SDS011;23372;52.050;4.810;2023-05-10T13:05:23;17.95;;;9.32;;
37527;SDS011;23372;52.050;4.810;2023-05-10T13:07:49;13.27;;;8.40;;
37527;SDS011;23372;52.050;4.810;2023-05-10T13:10:14;16.15;;;8.30;;
37527;SDS011;23372;52.050;4.810;2023-05-10T13:12:40;12.23;;;7.15;;
37527;SDS011;23372;52.050;4.810;2023-05-10T13:15:06;13.27;;;7.47;;
37527;SDS011;23372;52.050;4.810;2023-05-10T13:17:32;14.20;;;7.07;;
37527;SDS011;23372;52.050;4.810;2023-05-10T13:19:58;13.90;;;7.85;;
37527;SDS011;23372;52.050;4.810;2023-05-10T13:22:23;13.75;;;8.18;;
37527;SDS011;23372;52.050;4.810;2023-05-10T13:24:49;14.85;;;7.80;;
37527;SDS011;23372;52.050;4.810;2023-05-10T13:27:14;13.73;;;7.72;;
37527;SDS011;23372;52.050;4.810;2023-05-10T13:29:40;13.13;;;7.50;;
37527;SDS011;23372;52.050;4.810;2023-05-10T13:32:06;14.45;;;7.72;;
37527;SDS011;23372;52.050;4.810;2023-05-10T13:34:31;12.60;;;7.70;;
37527;SDS011;23372;52.050;4.810;2023-05-10T13:36:57;18.15;;;9.07;;
37527;SDS011;23372;52.050;4.810;2023-05-10T13:39:23;18.00;;;10.60;;
37527;SDS011;23372;52.050;4.810;2023-05-10T13:41:48;17.42;;;8.75;;
37527;SDS011;23372;52.050;4.810;2023-05-10T13:44:14;13.60;;;8.32;;
37527;SDS011;23372;52.050;4.810;2023-05-10T13:46:40;14.32;;;8.85;;
37527;SDS011;23372;52.050;4.810;2023-05-10T13:49:08;15.13;;;9.43;;
37527;SDS011;23372;52.050;4.810;2023-05-10T13:51:34;16.67;;;9.55;;
37527;SDS011;23372;52.050;4.810;2023-05-10T13:54:00;18.80;;;9.40;;
37527;SDS011;23372;52.050;4.810;2023-05-10T13:56:27;15.45;;;8.85;;
37527;SDS011;23372;52.050;4.810;2023-05-10T13:58:52;15.82;;;8.93;;
37527;SDS011;23372;52.050;4.810;2023-05-10T14:01:18;18.55;;;9.27;;
37527;SDS011;23372;52.050;4.810;2023-05-10T14:03:44;19.48;;;10.10;;
37527;SDS011;23372;52.050;4.810;2023-05-10T14:06:09;14.18;;;9.45;;
37527;SDS011;23372;52.050;4.810;2023-05-10T14:08:35;16.10;;;8.65;;
37527;SDS011;23372;52.050;4.810;2023-05-10T14:11:01;15.77;;;9.25;;
37527;SDS011;23372;52.050;4.810;2023-05-10T14:13:27;15.05;;;8.40;;
37527;SDS011;23372;52.050;4.810;2023-05-10T14:15:53;12.27;;;7.70;;
37527;SDS011;23372;52.050;4.810;2023-05-10T14:18:20;14.70;;;7.13;;
37527;SDS011;23372;52.050;4.810;2023-05-10T14:20:45;13.05;;;7.35;;
37527;SDS011;23372;52.050;4.810;2023-05-10T14:23:11;13.63;;;6.20;;
37527;SDS011;23372;52.050;4.810;2023-05-10T14:25:37;12.52;;;6.35;;
37527;SDS011;23372;52.050;4.810;2023-05-10T14:28:05;10.30;;;5.55;;
37527;SDS011;23372;52.050;4.810;2023-05-10T14:30:31;10.35;;;6.50;;
37527;SDS011;23372;52.050;4.810;2023-05-10T14:32:57;12.32;;;6.45;;
37527;SDS011;23372;52.050;4.810;2023-05-10T14:35:23;12.27;;;5.88;;
37527;SDS011;23372;52.050;4.810;2023-05-10T14:37:49;9.43;;;5.72;;
37527;SDS011;23372;52.050;4.810;2023-05-10T14:40:15;11.40;;;5.82;;
37527;SDS011;23372;52.050;4.810;2023-05-10T14:42:42;8.35;;;5.85;;
37527;SDS011;23372;52.050;4.810;2023-05-10T14:45:08;10.73;;;5.93;;
37527;SDS011;23372;52.050;4.810;2023-05-10T14:47:34;9.90;;;5.95;;
37527;SDS011;23372;52.050;4.810;2023-05-10T14:50:00;7.32;;;4.93;;
37527;SDS011;23372;52.050;4.810;2023-05-10T14:52:25;12.57;;;6.00;;
37527;SDS011;23372;52.050;4.810;2023-05-10T14:54:51;7.25;;;4.55;;
37527;SDS011;23372;52.050;4.810;2023-05-10T14:57:17;8.52;;;5.65;;
37527;SDS011;23372;52.050;4.810;2023-05-10T14:59:43;6.90;;;4.97;;
37527;SDS011;23372;52.050;4.810;2023-05-10T15:02:08;10.07;;;5.50;;
37527;SDS011;23372;52.050;4.810;2023-05-10T15:04:35;9.27;;;5.75;;